createdAt,value
2018-09-01T00:00:38.686Z,1021.56
2018-09-01T00:01:38.675Z,1021.60
2018-09-01T00:02:38.693Z,1021.49
2018-09-01T00:03:38.649Z,1021.54
2018-09-01T00:04:38.637Z,1021.50
2018-09-01T00:05:38.631Z,1021.54
2018-09-01T00:06:38.616Z,1021.51
2018-09-01T00:07:38.635Z,1021.51
2018-09-01T00:08:38.599Z,1021.52
2018-09-01T00:09:38.597Z,1021.54
2018-09-01T00:10:38.571Z,1021.53
2018-09-01T00:11:38.559Z,1021.54
2018-09-01T00:12:38.572Z,1021.53
2018-09-01T00:13:38.543Z,1021.51
2018-09-01T00:14:38.531Z,1021.51
2018-09-01T00:15:38.521Z,1021.53
2018-09-01T00:16:38.504Z,1021.55
2018-09-01T00:17:38.528Z,1021.54
2018-09-01T00:18:38.488Z,1021.51
2018-09-01T00:19:38.466Z,1021.48
2018-09-01T00:20:38.452Z,1021.58
2018-09-01T00:21:38.449Z,1021.52
2018-09-01T00:22:38.460Z,1021.56
2018-09-01T00:23:38.412Z,1021.58
2018-09-01T00:24:38.404Z,1021.56
2018-09-01T00:25:38.400Z,1021.64
2018-09-01T00:26:38.384Z,1021.60
2018-09-01T00:27:38.400Z,1021.62
2018-09-01T00:28:38.368Z,1021.62
2018-09-01T00:29:38.346Z,1021.63
2018-09-01T00:30:38.365Z,1021.61
2018-09-01T00:31:38.328Z,1021.63
2018-09-01T00:32:38.351Z,1021.63
2018-09-01T00:33:38.304Z,1021.67
2018-09-01T00:34:38.292Z,1021.69
2018-09-01T00:35:38.276Z,1021.64
2018-09-01T00:36:38.268Z,1021.66
2018-09-01T00:37:38.287Z,1021.65
2018-09-01T00:38:38.251Z,1021.70
2018-09-01T00:39:38.245Z,1021.66
2018-09-01T00:40:38.230Z,1021.66
2018-09-01T00:41:38.212Z,1021.68
2018-09-01T00:42:38.248Z,1021.65
2018-09-01T00:43:38.193Z,1021.66
2018-09-01T00:44:38.180Z,1021.68
2018-09-01T00:45:38.172Z,1021.64
2018-09-01T00:46:38.160Z,1021.70
2018-09-01T00:47:38.186Z,1021.66
2018-09-01T00:48:38.134Z,1021.69
2018-09-01T00:49:38.132Z,1021.73
2018-09-01T00:50:38.107Z,1021.75
2018-09-01T00:51:38.113Z,1021.74
2018-09-01T00:52:38.159Z,1021.70
2018-09-01T00:53:38.090Z,1021.69
2018-09-01T00:54:38.081Z,1021.72
2018-09-01T00:55:38.063Z,1021.72
2018-09-01T00:56:38.051Z,1021.68
2018-09-01T00:57:38.075Z,1021.73
2018-09-01T00:58:38.029Z,1021.67
2018-09-01T00:59:38.026Z,1021.70
2018-09-01T01:00:38.017Z,1021.68
2018-09-01T01:01:38.023Z,1021.69
2018-09-01T01:02:37.991Z,1021.68
2018-09-01T01:03:37.986Z,1021.69
2018-09-01T01:04:37.969Z,1021.69
2018-09-01T01:05:37.953Z,1021.69
2018-09-01T01:06:37.981Z,1021.67
2018-09-01T01:07:37.933Z,1021.68
2018-09-01T01:08:38.333Z,1021.78
2018-09-01T01:09:37.969Z,1021.69
2018-09-01T01:10:38.141Z,1021.75
2018-09-01T01:11:38.005Z,1021.71
2018-09-01T01:12:38.291Z,1021.72
2018-09-01T01:13:37.957Z,1021.72
2018-09-01T01:14:37.875Z,1021.71
2018-09-01T01:15:37.849Z,1021.65
2018-09-01T01:16:37.827Z,1021.70
2018-09-01T01:17:37.815Z,1021.73
2018-09-01T01:18:37.841Z,1021.68
2018-09-01T01:19:37.799Z,1021.74
2018-09-01T01:20:37.782Z,1021.73
2018-09-01T01:21:37.779Z,1021.72
2018-09-01T01:22:37.761Z,1021.70
2018-09-01T01:23:37.780Z,1021.73
2018-09-01T01:24:37.756Z,1021.71
2018-09-01T01:25:37.716Z,1021.72
2018-09-01T01:26:37.714Z,1021.69
2018-09-01T01:27:37.692Z,1021.70
2018-09-01T01:28:37.714Z,1021.70
2018-09-01T01:29:37.712Z,1021.72
2018-09-01T01:30:37.661Z,1021.72
2018-09-01T01:31:37.654Z,1021.74
2018-09-01T01:32:37.647Z,1021.75
2018-09-01T01:33:37.628Z,1021.72
2018-09-01T01:34:37.647Z,1021.76
2018-09-01T01:35:37.642Z,1021.71
2018-09-01T01:36:37.600Z,1021.80
2018-09-01T01:37:37.591Z,1021.79
2018-09-01T01:38:37.574Z,1021.78
2018-09-01T01:39:37.597Z,1021.76
2018-09-01T01:40:37.588Z,1021.77
2018-09-01T01:41:37.556Z,1021.75
2018-09-01T01:42:37.541Z,1021.78
2018-09-01T01:43:37.591Z,1021.80
2018-09-01T01:44:37.531Z,1021.75
2018-09-01T01:45:37.529Z,1021.78
2018-09-01T01:46:37.493Z,1021.78
2018-09-01T01:47:37.479Z,1021.78
2018-09-01T01:48:37.469Z,1021.80
2018-09-01T01:49:37.532Z,1021.78
2018-09-01T01:50:37.482Z,1021.82
2018-09-01T01:51:37.445Z,1021.81
2018-09-01T01:52:37.421Z,1021.81
2018-09-01T01:53:37.415Z,1021.78
2018-09-01T01:54:37.431Z,1021.82
2018-09-01T01:55:37.388Z,1021.84
2018-09-01T01:56:37.382Z,1021.84
2018-09-01T01:57:37.356Z,1021.82
2018-09-01T01:58:37.347Z,1021.88
2018-09-01T01:59:37.368Z,1021.90
2018-09-01T02:00:37.348Z,1021.91
2018-09-01T02:01:37.356Z,1021.91
2018-09-01T02:02:37.304Z,1021.89
2018-09-01T02:03:37.318Z,1021.90
2018-09-01T02:04:37.320Z,1021.90
2018-09-01T02:05:37.270Z,1021.89
2018-09-01T02:06:37.275Z,1021.88
2018-09-01T02:07:37.251Z,1021.93
2018-09-01T02:08:37.236Z,1021.89
2018-09-01T02:09:37.251Z,1021.90
2018-09-01T02:10:37.240Z,1021.89
2018-09-01T02:11:37.200Z,1021.87
2018-09-01T02:12:37.192Z,1021.90
2018-09-01T02:13:37.188Z,1021.87
2018-09-01T02:14:37.194Z,1021.86
2018-09-01T02:15:37.160Z,1021.86
2018-09-01T02:16:37.144Z,1021.85
2018-09-01T02:17:37.134Z,1021.85
2018-09-01T02:18:37.126Z,1021.86
2018-09-01T02:19:37.134Z,1021.86
2018-09-01T02:20:37.106Z,1021.88
2018-09-01T02:21:37.098Z,1021.88
2018-09-01T02:22:37.082Z,1021.92
2018-09-01T02:23:37.070Z,1021.88
2018-09-01T02:24:37.092Z,1021.92
2018-09-01T02:25:37.042Z,1021.93
2018-09-01T02:26:37.042Z,1021.95
2018-09-01T02:27:37.033Z,1021.97
2018-09-01T02:28:37.031Z,1021.94
2018-09-01T02:29:37.041Z,1021.91
2018-09-01T02:30:37.003Z,1021.94
2018-09-01T02:31:36.981Z,1021.95
2018-09-01T02:32:36.981Z,1021.98
2018-09-01T02:33:36.999Z,1021.94
2018-09-01T02:34:36.981Z,1021.99
2018-09-01T02:35:36.941Z,1021.96
2018-09-01T02:36:36.932Z,1021.99
2018-09-01T02:37:36.945Z,1021.98
2018-09-01T02:38:36.910Z,1022.02
2018-09-01T02:39:36.971Z,1022.02
2018-09-01T02:40:36.893Z,1022.00
2018-09-01T02:41:36.869Z,1022.02
2018-09-01T02:42:36.864Z,1022.03
2018-09-01T02:43:36.850Z,1022.06
2018-09-01T02:44:36.869Z,1022.08
2018-09-01T02:45:36.832Z,1022.09
2018-09-01T02:46:36.812Z,1022.08
2018-09-01T02:47:36.807Z,1022.04
2018-09-01T02:48:36.790Z,1022.14
2018-09-01T02:49:36.812Z,1022.14
2018-09-01T02:50:36.802Z,1022.11
2018-09-01T02:51:36.764Z,1022.12
2018-09-01T02:52:36.753Z,1022.14
2018-09-01T02:53:36.735Z,1022.13
2018-09-01T02:54:36.760Z,1022.12
2018-09-01T02:55:36.711Z,1022.15
2018-09-01T02:56:36.704Z,1022.17
2018-09-01T02:57:36.688Z,1022.15
2018-09-01T02:58:36.688Z,1022.14
2018-09-01T02:59:36.698Z,1022.16
2018-09-01T03:00:36.648Z,1022.19
2018-09-01T03:01:36.644Z,1022.19
2018-09-01T03:02:36.619Z,1022.18
2018-09-01T03:03:36.620Z,1022.26
2018-09-01T03:04:36.638Z,1022.22
2018-09-01T03:05:36.593Z,1022.23
2018-09-01T03:06:36.590Z,1022.24
2018-09-01T03:07:36.569Z,1022.28
2018-09-01T03:08:36.561Z,1022.32
2018-09-01T03:09:36.593Z,1022.27
2018-09-01T03:10:36.532Z,1022.27
2018-09-01T03:11:36.526Z,1022.22
2018-09-01T03:12:36.515Z,1022.27
2018-09-01T03:13:36.507Z,1022.24
2018-09-01T03:14:36.522Z,1022.26
2018-09-01T03:15:36.484Z,1022.27
2018-09-01T03:16:36.474Z,1022.30
2018-09-01T03:17:36.458Z,1022.24
2018-09-01T03:18:36.452Z,1022.20
2018-09-01T03:19:36.466Z,1022.23
2018-09-01T03:20:36.422Z,1022.25
2018-09-01T03:21:36.415Z,1022.28
2018-09-01T03:22:36.404Z,1022.26
2018-09-01T03:23:36.389Z,1022.28
2018-09-01T03:24:36.413Z,1022.32
2018-09-01T03:25:36.375Z,1022.32
2018-09-01T03:26:36.359Z,1022.34
2018-09-01T03:27:36.348Z,1022.29
2018-09-01T03:28:36.338Z,1022.35
2018-09-01T03:29:36.358Z,1022.33
2018-09-01T03:30:36.315Z,1022.32
2018-09-01T03:31:36.311Z,1022.29
2018-09-01T03:32:36.297Z,1022.31
2018-09-01T03:33:36.293Z,1022.33
2018-09-01T03:34:36.305Z,1022.38
2018-09-01T03:35:36.272Z,1022.40
2018-09-01T03:36:36.255Z,1022.42
2018-09-01T03:37:36.246Z,1022.42
2018-09-01T03:38:36.232Z,1022.41
2018-09-01T03:39:36.259Z,1022.36
2018-09-01T03:40:36.211Z,1022.41
2018-09-01T03:41:36.208Z,1022.37
2018-09-01T03:42:36.188Z,1022.38
2018-09-01T03:43:36.174Z,1022.40
2018-09-01T03:44:36.198Z,1022.35
2018-09-01T03:45:36.183Z,1022.36
2018-09-01T03:46:36.141Z,1022.34
2018-09-01T03:47:36.142Z,1022.42
2018-09-01T03:48:36.121Z,1022.39
2018-09-01T03:49:36.150Z,1022.37
2018-09-01T03:50:36.103Z,1022.42
2018-09-01T03:51:36.087Z,1022.42
2018-09-01T03:52:36.074Z,1022.40
2018-09-01T03:53:36.065Z,1022.39
2018-09-01T03:54:36.109Z,1022.38
2018-09-01T03:55:36.045Z,1022.42
2018-09-01T03:56:36.031Z,1022.40
2018-09-01T03:57:36.026Z,1022.40
2018-09-01T03:58:36.012Z,1022.39
2018-09-01T03:59:36.021Z,1022.38
2018-09-01T04:00:35.988Z,1022.42
2018-09-01T04:01:35.975Z,1022.42
2018-09-01T04:02:35.995Z,1022.38
2018-09-01T04:03:35.942Z,1022.42
2018-09-01T04:04:35.934Z,1022.40
2018-09-01T04:05:35.923Z,1022.38
2018-09-01T04:06:35.908Z,1022.42
2018-09-01T04:07:35.932Z,1022.41
2018-09-01T04:08:35.890Z,1022.34
2018-09-01T04:09:35.878Z,1022.40
2018-09-01T04:10:35.898Z,1022.40
2018-09-01T04:11:35.854Z,1022.43
2018-09-01T04:12:35.878Z,1022.38
2018-09-01T04:13:35.832Z,1022.36
2018-09-01T04:14:35.852Z,1022.36
2018-09-01T04:15:35.815Z,1022.36
2018-09-01T04:16:35.796Z,1022.38
2018-09-01T04:17:35.825Z,1022.40
2018-09-01T04:18:35.777Z,1022.37
2018-09-01T04:19:35.767Z,1022.39
2018-09-01T04:20:35.760Z,1022.37
2018-09-01T04:21:35.758Z,1022.39
2018-09-01T04:22:35.774Z,1022.42
2018-09-01T04:23:35.720Z,1022.38
2018-09-01T04:24:35.718Z,1022.38
2018-09-01T04:25:35.703Z,1022.39
2018-09-01T04:26:35.688Z,1022.43
2018-09-01T04:27:35.718Z,1022.47
2018-09-01T04:28:35.669Z,1022.41
2018-09-01T04:29:35.650Z,1022.44
2018-09-01T04:30:35.646Z,1022.45
2018-09-01T04:31:35.627Z,1022.45
2018-09-01T04:32:35.667Z,1022.41
2018-09-01T04:33:35.613Z,1022.42
2018-09-01T04:34:35.602Z,1022.45
2018-09-01T04:35:35.596Z,1022.52
2018-09-01T04:36:35.579Z,1022.48
2018-09-01T04:37:35.617Z,1022.47
2018-09-01T04:38:35.561Z,1022.52
2018-09-01T04:39:35.557Z,1022.51
2018-09-01T04:40:35.543Z,1022.51
2018-09-01T04:41:35.529Z,1022.50
2018-09-01T04:42:35.555Z,1022.53
2018-09-01T04:43:35.501Z,1022.52
2018-09-01T04:44:35.495Z,1022.58
2018-09-01T04:45:35.490Z,1022.57
2018-09-01T04:46:35.475Z,1022.54
2018-09-01T04:47:35.493Z,1022.54
2018-09-01T04:48:35.471Z,1022.63
2018-09-01T04:49:35.441Z,1022.55
2018-09-01T04:50:35.424Z,1022.60
2018-09-01T04:51:35.449Z,1022.58
2018-09-01T04:52:35.413Z,1022.61
2018-09-01T04:53:35.391Z,1022.59
2018-09-01T04:54:35.383Z,1022.59
2018-09-01T04:55:35.392Z,1022.59
2018-09-01T04:56:35.389Z,1022.61
2018-09-01T04:57:35.355Z,1022.62
2018-09-01T04:58:35.344Z,1022.64
2018-09-01T04:59:35.332Z,1022.62
2018-09-01T05:00:35.345Z,1022.67
2018-09-01T05:01:35.343Z,1022.62
2018-09-01T05:02:35.305Z,1022.62
2018-09-01T05:03:35.280Z,1022.58
2018-09-01T05:04:35.275Z,1022.63
2018-09-01T05:05:35.262Z,1022.65
2018-09-01T05:06:35.279Z,1022.64
2018-09-01T05:07:35.227Z,1022.71
2018-09-01T05:08:35.213Z,1022.68
2018-09-01T05:09:35.210Z,1022.67
2018-09-01T05:10:35.189Z,1022.65
2018-09-01T05:11:35.215Z,1022.69
2018-09-01T05:12:35.174Z,1022.71
2018-09-01T05:13:35.171Z,1022.70
2018-09-01T05:14:35.149Z,1022.65
2018-09-01T05:15:35.168Z,1022.63
2018-09-01T05:16:35.136Z,1022.58
2018-09-01T05:17:35.116Z,1022.66
2018-09-01T05:18:35.100Z,1022.66
2018-09-01T05:19:35.095Z,1022.68
2018-09-01T05:20:35.118Z,1022.67
2018-09-01T05:21:35.078Z,1022.68
2018-09-01T05:22:35.056Z,1022.70
2018-09-01T05:23:35.052Z,1022.71
2018-09-01T05:24:35.040Z,1022.71
2018-09-01T05:25:35.069Z,1022.77
2018-09-01T05:26:35.021Z,1022.78
2018-09-01T05:27:34.997Z,1022.77
2018-09-01T05:28:34.985Z,1022.76
2018-09-01T05:29:34.984Z,1022.76
2018-09-01T05:30:35.006Z,1022.78
2018-09-01T05:31:34.961Z,1022.81
2018-09-01T05:32:34.948Z,1022.79
2018-09-01T05:33:34.932Z,1022.84
2018-09-01T05:34:34.924Z,1022.80
2018-09-01T05:35:34.941Z,1022.85
2018-09-01T05:36:34.991Z,1022.83
2018-09-01T05:37:34.886Z,1022.87
2018-09-01T05:38:34.914Z,1022.83
2018-09-01T05:39:34.875Z,1022.85
2018-09-01T05:40:34.863Z,1022.87
2018-09-01T05:41:34.895Z,1022.89
2018-09-01T05:42:34.845Z,1022.86
2018-09-01T05:43:34.862Z,1022.85
2018-09-01T05:44:34.818Z,1022.85
2018-09-01T05:45:34.810Z,1022.88
2018-09-01T05:46:34.833Z,1022.89
2018-09-01T05:47:34.788Z,1022.89
2018-09-01T05:48:34.775Z,1022.94
2018-09-01T05:49:34.785Z,1022.92
2018-09-01T05:50:34.777Z,1022.90
2018-09-01T05:51:34.755Z,1022.97
2018-09-01T05:52:34.731Z,1022.95
2018-09-01T05:53:34.721Z,1022.89
2018-09-01T05:54:34.740Z,1022.93
2018-09-01T05:55:34.692Z,1022.91
2018-09-01T05:56:34.682Z,1022.97
2018-09-01T05:57:34.666Z,1022.99
2018-09-01T05:58:34.657Z,1022.99
2018-09-01T05:59:34.676Z,1022.99
2018-09-01T06:00:34.685Z,1023.01
2018-09-01T06:01:34.631Z,1023.05
2018-09-01T06:02:34.617Z,1022.99
2018-09-01T06:03:34.619Z,1023.03
2018-09-01T06:04:34.640Z,1022.99
2018-09-01T06:05:34.582Z,1023.10
2018-09-01T06:06:34.568Z,1023.15
2018-09-01T06:07:34.554Z,1023.15
2018-09-01T06:08:34.580Z,1023.12
2018-09-01T06:09:34.608Z,1023.14
2018-09-01T06:10:34.532Z,1023.05
2018-09-01T06:11:34.519Z,1023.11
2018-09-01T06:12:34.506Z,1023.15
2018-09-01T06:13:34.501Z,1023.19
2018-09-01T06:14:34.509Z,1023.20
2018-09-01T06:15:34.478Z,1023.15
2018-09-01T06:16:34.462Z,1023.26
2018-09-01T06:17:34.515Z,1023.34
2018-09-01T06:18:34.469Z,1023.32
2018-09-01T06:19:34.454Z,1023.31
2018-09-01T06:20:34.414Z,1023.33
2018-09-01T06:21:34.429Z,1023.38
2018-09-01T06:22:34.393Z,1023.35
2018-09-01T06:23:34.391Z,1023.43
2018-09-01T06:24:34.399Z,1023.45
2018-09-01T06:25:34.368Z,1023.44
2018-09-01T06:26:34.349Z,1023.33
2018-09-01T06:27:34.341Z,1023.46
2018-09-01T06:28:34.359Z,1023.50
2018-09-01T06:29:34.313Z,1023.49
2018-09-01T06:30:34.304Z,1023.49
2018-09-01T06:31:34.289Z,1023.51
2018-09-01T06:32:34.279Z,1023.50
2018-09-01T06:33:34.299Z,1023.54
2018-09-01T06:34:34.262Z,1023.54
2018-09-01T06:35:34.248Z,1023.59
2018-09-01T06:36:34.242Z,1023.57
2018-09-01T06:37:34.282Z,1023.57
2018-09-01T06:38:34.244Z,1023.62
2018-09-01T06:39:34.207Z,1023.54
2018-09-01T06:40:34.233Z,1023.54
2018-09-01T06:41:34.187Z,1023.55
2018-09-01T06:42:34.196Z,1023.59
2018-09-01T06:43:34.148Z,1023.62
2018-09-01T06:44:34.149Z,1023.64
2018-09-01T06:45:34.159Z,1023.63
2018-09-01T06:46:34.116Z,1023.60
2018-09-01T06:47:34.116Z,1023.62
2018-09-01T06:48:34.092Z,1023.59
2018-09-01T06:49:34.120Z,1023.67
2018-09-01T06:50:34.072Z,1023.75
2018-09-01T06:51:34.100Z,1023.76
2018-09-01T06:52:34.050Z,1023.63
2018-09-01T06:53:34.051Z,1023.58
2018-09-01T06:54:34.065Z,1023.65
2018-09-01T06:55:34.060Z,1023.75
2018-09-01T06:56:34.011Z,1023.73
2018-09-01T06:57:34.000Z,1023.72
2018-09-01T06:58:34.000Z,1023.76
2018-09-01T06:59:33.975Z,1023.80
2018-09-01T07:00:33.996Z,1023.85
2018-09-01T07:01:33.983Z,1023.79
2018-09-01T07:02:33.946Z,1023.81
2018-09-01T07:03:33.928Z,1023.81
2018-09-01T07:04:33.927Z,1023.82
2018-09-01T07:05:33.904Z,1023.85
2018-09-01T07:06:33.931Z,1023.90
2018-09-01T07:07:33.900Z,1023.87
2018-09-01T07:08:33.873Z,1023.79
2018-09-01T07:09:33.859Z,1023.84
2018-09-01T07:10:33.861Z,1023.85
2018-09-01T07:11:33.899Z,1023.86
2018-09-01T07:12:33.827Z,1023.90
2018-09-01T07:13:33.820Z,1023.94
2018-09-01T07:14:33.832Z,1023.94
2018-09-01T07:15:33.831Z,1023.91
2018-09-01T07:16:33.795Z,1023.95
2018-09-01T07:17:33.779Z,1023.92
2018-09-01T07:18:33.787Z,1023.94
2018-09-01T07:19:33.760Z,1023.98
2018-09-01T07:20:33.777Z,1023.94
2018-09-01T07:21:33.743Z,1024.02
2018-09-01T07:22:33.733Z,1024.03
2018-09-01T07:23:33.793Z,1024.04
2018-09-01T07:24:33.705Z,1024.07
2018-09-01T07:25:33.823Z,1024.06
2018-09-01T07:26:33.679Z,1024.09
2018-09-01T07:27:33.675Z,1024.13
2018-09-01T07:28:33.665Z,1024.12
2018-09-01T07:29:33.654Z,1024.17
2018-09-01T07:30:33.827Z,1024.13
2018-09-01T07:31:34.048Z,1024.18
2018-09-01T07:32:33.611Z,1024.20
2018-09-01T07:33:33.649Z,1024.22
2018-09-01T07:34:33.602Z,1024.29
2018-09-01T07:35:33.615Z,1024.28
2018-09-01T07:36:33.579Z,1024.30
2018-09-01T07:37:33.573Z,1024.23
2018-09-01T07:38:33.597Z,1024.25
2018-09-01T07:39:33.541Z,1024.29
2018-09-01T07:40:33.525Z,1024.25
2018-09-01T07:41:33.515Z,1024.25
2018-09-01T07:42:33.506Z,1024.25
2018-09-01T07:43:33.527Z,1024.26
2018-09-01T07:44:33.483Z,1024.31
2018-09-01T07:45:33.476Z,1024.30
2018-09-01T07:46:33.458Z,1024.30
2018-09-01T07:47:33.444Z,1024.28
2018-09-01T07:48:33.458Z,1024.31
2018-09-01T07:49:33.412Z,1024.34
2018-09-01T07:50:33.416Z,1024.41
2018-09-01T07:51:33.392Z,1024.38
2018-09-01T07:52:33.382Z,1024.38
2018-09-01T07:53:33.414Z,1024.33
2018-09-01T07:54:33.411Z,1024.31
2018-09-01T07:55:33.350Z,1024.39
2018-09-01T07:56:33.343Z,1024.39
2018-09-01T07:57:33.325Z,1024.36
2018-09-01T07:58:33.354Z,1024.40
2018-09-01T07:59:33.306Z,1024.39
2018-09-01T08:00:33.306Z,1024.43
2018-09-01T08:01:33.279Z,1024.35
2018-09-01T08:02:33.308Z,1024.53
2018-09-01T08:03:33.256Z,1024.55
2018-09-01T08:04:33.247Z,1024.52
2018-09-01T08:05:33.235Z,1024.51
2018-09-01T08:06:33.223Z,1024.51
2018-09-01T08:07:33.334Z,1024.55
2018-09-01T08:08:33.206Z,1024.51
2018-09-01T08:09:33.190Z,1024.53
2018-09-01T08:10:33.186Z,1024.57
2018-09-01T08:11:33.173Z,1024.55
2018-09-01T08:12:33.188Z,1024.46
2018-09-01T08:13:33.203Z,1024.53
2018-09-01T08:14:33.193Z,1024.53
2018-09-01T08:15:33.129Z,1024.55
2018-09-01T08:16:33.110Z,1024.53
2018-09-01T08:17:33.145Z,1024.58
2018-09-01T08:18:33.126Z,1024.59
2018-09-01T08:19:33.095Z,1024.61
2018-09-01T08:20:33.081Z,1024.60
2018-09-01T08:21:33.083Z,1024.62
2018-09-01T08:22:33.063Z,1024.73
2018-09-01T08:23:33.075Z,1024.72
2018-09-01T08:24:33.041Z,1024.71
2018-09-01T08:25:33.023Z,1024.74
2018-09-01T08:26:33.009Z,1024.75
2018-09-01T08:27:33.031Z,1024.81
2018-09-01T08:28:32.995Z,1024.80
2018-09-01T08:29:32.976Z,1024.84
2018-09-01T08:30:33.000Z,1024.86
2018-09-01T08:31:32.952Z,1024.84
2018-09-01T08:32:32.979Z,1024.87
2018-09-01T08:33:32.974Z,1024.92
2018-09-01T08:34:32.927Z,1024.93
2018-09-01T08:35:32.920Z,1024.88
2018-09-01T08:36:32.902Z,1024.94
2018-09-01T08:37:32.926Z,1024.93
2018-09-01T08:38:32.891Z,1024.93
2018-09-01T08:39:32.906Z,1024.84
2018-09-01T08:40:32.854Z,1024.93
2018-09-01T08:41:32.843Z,1024.90
2018-09-01T08:42:32.861Z,1024.90
2018-09-01T08:43:32.873Z,1024.92
2018-09-01T08:44:32.806Z,1024.91
2018-09-01T08:45:32.799Z,1024.89
2018-09-01T08:46:32.787Z,1024.90
2018-09-01T08:47:32.785Z,1024.90
2018-09-01T08:48:32.806Z,1024.94
2018-09-01T08:49:32.755Z,1024.94
2018-09-01T08:50:32.748Z,1024.98
2018-09-01T08:51:32.789Z,1024.93
2018-09-01T08:52:32.778Z,1024.97
2018-09-01T08:53:32.859Z,1025.00
2018-09-01T08:54:32.694Z,1025.01
2018-09-01T08:55:32.674Z,1025.04
2018-09-01T08:56:32.708Z,1025.02
2018-09-01T08:57:32.666Z,1025.08
2018-09-01T08:58:32.840Z,1025.05
2018-09-01T08:59:32.643Z,1025.00
2018-09-01T09:00:32.642Z,1025.07
2018-09-01T09:01:32.726Z,1025.08
2018-09-01T09:02:32.612Z,1025.05
2018-09-01T09:03:32.596Z,1025.07
2018-09-01T09:04:32.604Z,1025.09
2018-09-01T09:05:32.634Z,1025.12
2018-09-01T09:06:32.590Z,1025.10
2018-09-01T09:07:32.545Z,1025.15
2018-09-01T09:08:32.536Z,1025.14
2018-09-01T09:09:32.575Z,1025.22
2018-09-01T09:10:32.526Z,1025.09
2018-09-01T09:11:32.578Z,1025.06
2018-09-01T09:12:32.542Z,1025.12
2018-09-01T09:13:32.493Z,1025.08
2018-09-01T09:14:32.488Z,1025.16
2018-09-01T09:15:32.518Z,1025.18
2018-09-01T09:16:32.479Z,1025.19
2018-09-01T09:17:32.486Z,1025.29
2018-09-01T09:18:32.488Z,1025.30
2018-09-01T09:19:32.440Z,1025.48
2018-09-01T09:20:32.432Z,1025.43
2018-09-01T09:21:32.394Z,1025.36
2018-09-01T09:22:32.394Z,1025.52
2018-09-01T09:23:32.415Z,1025.53
2018-09-01T09:24:32.388Z,1025.54
2018-09-01T09:25:32.433Z,1025.54
2018-09-01T09:26:32.363Z,1025.54
2018-09-01T09:27:32.340Z,1025.55
2018-09-01T09:28:32.321Z,1025.58
2018-09-01T09:29:32.372Z,1025.56
2018-09-01T09:30:32.354Z,1025.62
2018-09-01T09:31:32.371Z,1025.62
2018-09-01T09:32:32.346Z,1025.63
2018-09-01T09:33:32.318Z,1025.67
2018-09-01T09:34:32.306Z,1025.70
2018-09-01T09:35:32.247Z,1025.76
2018-09-01T09:36:32.243Z,1025.39
2018-09-01T09:37:32.224Z,1025.36
2018-09-01T09:38:32.249Z,1025.71
2018-09-01T09:39:32.205Z,1025.74
2018-09-01T09:40:32.189Z,1025.63
2018-09-01T09:41:32.230Z,1025.36
2018-09-01T09:42:32.170Z,1025.76
2018-09-01T09:43:32.190Z,1025.44
2018-09-01T09:44:32.151Z,1025.37
2018-09-01T09:45:32.148Z,1025.69
2018-09-01T09:46:32.140Z,1025.76
2018-09-01T09:47:32.195Z,1025.55
2018-09-01T09:48:32.105Z,1025.43
2018-09-01T09:49:32.098Z,1025.37
2018-09-01T09:50:32.087Z,1025.75
2018-09-01T09:51:32.083Z,1025.78
2018-09-01T09:52:32.094Z,1025.76
2018-09-01T09:53:32.065Z,1025.79
2018-09-01T09:54:32.078Z,1025.74
2018-09-01T09:55:32.028Z,1025.79
2018-09-01T09:56:32.019Z,1025.79
2018-09-01T09:57:32.001Z,1025.80
2018-09-01T09:58:32.133Z,1025.86
2018-09-01T09:59:31.981Z,1025.85
2018-09-01T10:00:31.972Z,1025.48
2018-09-01T10:01:31.962Z,1025.46
2018-09-01T10:02:31.950Z,1025.46
2018-09-01T10:03:31.977Z,1025.43
2018-09-01T10:04:32.016Z,1025.47
2018-09-01T10:05:31.950Z,1025.91
2018-09-01T10:06:31.916Z,1025.92
2018-09-01T10:07:31.890Z,1025.91
2018-09-01T10:08:31.890Z,1025.95
2018-09-01T10:09:31.938Z,1025.97
2018-09-01T10:10:31.868Z,1025.97
2018-09-01T10:11:31.859Z,1026.03
2018-09-01T10:12:31.857Z,1025.99
2018-09-01T10:13:31.846Z,1025.59
2018-09-01T10:14:31.876Z,1025.49
2018-09-01T10:15:31.818Z,1025.56
2018-09-01T10:16:31.816Z,1025.53
2018-09-01T10:17:31.795Z,1025.99
2018-09-01T10:18:31.790Z,1025.98
2018-09-01T10:19:31.812Z,1026.00
2018-09-01T10:20:31.831Z,1025.99
2018-09-01T10:21:31.781Z,1026.05
2018-09-01T10:22:31.822Z,1026.07
2018-09-01T10:23:31.806Z,1026.07
2018-09-01T10:24:31.807Z,1026.00
2018-09-01T10:25:31.851Z,1025.72
2018-09-01T10:26:31.773Z,1026.00
2018-09-01T10:27:31.760Z,1025.91
2018-09-01T10:28:31.750Z,1026.09
2018-09-01T10:29:31.766Z,1026.01
2018-09-01T10:30:31.788Z,1026.03
2018-09-01T10:31:31.728Z,1026.09
2018-09-01T10:32:31.692Z,1026.09
2018-09-01T10:33:31.703Z,1026.17
2018-09-01T10:34:31.706Z,1026.18
2018-09-01T10:35:31.778Z,1026.11
2018-09-01T10:36:31.672Z,1025.69
2018-09-01T10:37:31.949Z,1025.67
2018-09-01T10:38:31.695Z,1025.59
2018-09-01T10:39:31.598Z,1026.10
2018-09-01T10:40:31.700Z,1025.66
2018-09-01T10:41:31.608Z,1026.18
2018-09-01T10:42:31.644Z,1026.02
2018-09-01T10:43:31.578Z,1025.87
2018-09-01T10:44:31.616Z,1025.73
2018-09-01T10:45:31.544Z,1025.66
2018-09-01T10:46:31.548Z,1026.10
2018-09-01T10:47:31.636Z,1026.12
2018-09-01T10:48:31.552Z,1026.22
2018-09-01T10:49:31.535Z,1025.71
2018-09-01T10:50:31.500Z,1025.69
2018-09-01T10:51:31.486Z,1025.97
2018-09-01T10:52:31.583Z,1026.09
2018-09-01T10:53:31.793Z,1026.16
2018-09-01T10:54:31.477Z,1026.18
2018-09-01T10:55:31.465Z,1026.12
2018-09-01T10:56:31.464Z,1026.22
2018-09-01T10:57:31.524Z,1026.25
2018-09-01T10:58:31.627Z,1026.23
2018-09-01T10:59:31.602Z,1026.23
2018-09-01T11:00:31.478Z,1026.21
2018-09-01T11:01:31.407Z,1026.23
2018-09-01T11:02:31.410Z,1026.21
2018-09-01T11:03:31.378Z,1026.22
2018-09-01T11:04:31.393Z,1026.22
2018-09-01T11:05:31.468Z,1026.17
2018-09-01T11:06:31.422Z,1026.14
2018-09-01T11:07:31.356Z,1026.18
2018-09-01T11:08:31.351Z,1026.18
2018-09-01T11:09:31.323Z,1026.13
2018-09-01T11:10:31.339Z,1026.18
2018-09-01T11:11:31.576Z,1026.16
2018-09-01T11:12:31.304Z,1026.15
2018-09-01T11:13:31.302Z,1026.14
2018-09-01T11:14:31.271Z,1026.18
2018-09-01T11:15:31.262Z,1026.14
2018-09-01T11:16:31.318Z,1026.18
2018-09-01T11:17:31.336Z,1026.26
2018-09-01T11:18:31.750Z,1026.28
2018-09-01T11:19:31.241Z,1026.24
2018-09-01T11:20:31.164Z,1026.31
2018-09-01T11:21:31.256Z,1026.26
2018-09-01T11:22:31.258Z,1026.27
2018-09-01T11:23:31.179Z,1026.19
2018-09-01T11:24:31.182Z,1026.23
2018-09-01T11:25:31.156Z,1026.23
2018-09-01T11:26:31.156Z,1026.26
2018-09-01T11:27:31.328Z,1026.27
2018-09-01T11:28:31.064Z,1026.26
2018-09-01T11:29:31.136Z,1026.28
2018-09-01T11:30:31.107Z,1026.25
2018-09-01T11:31:31.172Z,1026.29
2018-09-01T11:32:31.049Z,1026.33
2018-09-01T11:33:31.093Z,1026.37
2018-09-01T11:34:31.066Z,1026.36
2018-09-01T11:35:31.258Z,1026.34
2018-09-01T11:36:31.150Z,1026.31
2018-09-01T11:37:31.020Z,1026.26
2018-09-01T11:38:31.028Z,1026.31
2018-09-01T11:39:31.025Z,1026.27
2018-09-01T11:40:31.006Z,1025.87
2018-09-01T11:41:31.083Z,1026.12
2018-09-01T11:42:31.077Z,1026.20
2018-09-01T11:43:30.990Z,1026.24
2018-09-01T11:44:30.941Z,1026.29
2018-09-01T11:45:30.946Z,1026.33
2018-09-01T11:46:31.016Z,1026.29
2018-09-01T11:47:30.977Z,1026.38
2018-09-01T11:48:30.945Z,1026.31
2018-09-01T11:49:30.901Z,1026.29
2018-09-01T11:50:30.886Z,1026.36
2018-09-01T11:51:30.883Z,1026.36
2018-09-01T11:52:30.960Z,1026.33
2018-09-01T11:53:30.907Z,1026.32
2018-09-01T11:54:30.873Z,1026.38
2018-09-01T11:55:30.776Z,1026.40
2018-09-01T11:56:30.776Z,1026.44
2018-09-01T11:57:30.795Z,1026.45
2018-09-01T11:58:30.880Z,1026.39
2018-09-01T11:59:30.755Z,1026.46
2018-09-01T12:00:30.754Z,1026.42
2018-09-01T12:01:30.781Z,1026.42
2018-09-01T12:02:30.712Z,1026.41
2018-09-01T12:03:30.716Z,1026.39
2018-09-01T12:04:30.700Z,1026.32
2018-09-01T12:05:30.682Z,1026.41